Time;durP1;ratioP1;P1;durP2;ratioP2;P2;SDS_P1;SDS_P2;PMS_P1;PMS_P2;Temp;Humidity;BMP_temperature;BMP_pressure;BME280_temperature;BME280_humidity;BME280_pressure;Samples;Min_cycle;Max_cycle;Signal;HPM_P1;HPM_P2
2022/02/13 00:00:06;;;;;;;16.00;7.43;;;;;;;;;;5071335;28;20029;-49
2022/02/13 00:02:32;;;;;;;16.38;6.90;;;;;;;;;;5071191;28;20099;-51
2022/02/13 00:04:58;;;;;;;13.80;7.50;;;;;;;;;;5071279;28;21963;-50
2022/02/13 00:07:24;;;;;;;13.48;6.72;;;;;;;;;;5070662;28;20021;-50
2022/02/13 00:09:50;;;;;;;13.85;6.85;;;;;;;;;;5074234;28;20107;-49
2022/02/13 00:12:16;;;;;;;16.85;7.50;;;;;;;;;;5062783;28;20480;-50
2022/02/13 00:14:42;;;;;;;17.05;6.95;;;;;;;;;;5060230;28;20473;-48
2022/02/13 00:17:10;;;;;;;11.52;6.47;;;;;;;;;;5071646;28;20024;-49
2022/02/13 00:19:36;;;;;;;12.63;6.93;;;;;;;;;;5069628;28;20029;-49
2022/02/13 00:22:02;;;;;;;16.83;7.22;;;;;;;;;;5073024;28;20027;-48
2022/02/13 00:24:28;;;;;;;12.32;6.80;;;;;;;;;;5064217;28;20048;-49
2022/02/13 00:26:54;;;;;;;14.15;6.63;;;;;;;;;;5073611;28;20421;-50
2022/02/13 00:29:20;;;;;;;16.40;7.88;;;;;;;;;;5074087;28;20032;-50
2022/02/13 00:31:46;;;;;;;14.68;7.63;;;;;;;;;;5059227;28;20029;-50
2022/02/13 00:34:12;;;;;;;16.02;6.93;;;;;;;;;;5067254;28;20040;-49
2022/02/13 00:36:38;;;;;;;12.88;6.80;;;;;;;;;;5072926;28;20047;-48
2022/02/13 00:39:04;;;;;;;15.40;7.13;;;;;;;;;;5071302;28;20019;-51
2022/02/13 00:41:30;;;;;;;14.07;6.57;;;;;;;;;;5068798;28;20025;-53
2022/02/13 00:43:56;;;;;;;16.50;6.95;;;;;;;;;;5066900;28;20079;-50
2022/02/13 00:46:23;;;;;;;11.90;6.60;;;;;;;;;;5067371;28;20021;-50
2022/02/13 00:48:49;;;;;;;16.58;7.55;;;;;;;;;;5064182;28;20120;-51
2022/02/13 00:51:15;;;;;;;12.63;6.93;;;;;;;;;;5069041;28;20060;-49
2022/02/13 00:53:41;;;;;;;13.65;6.88;;;;;;;;;;5069498;28;20560;-50
2022/02/13 00:56:07;;;;;;;13.93;7.00;;;;;;;;;;5072683;28;20024;-49
2022/02/13 00:58:35;;;;;;;13.45;6.50;;;;;;;;;;5068824;28;20071;-48
2022/02/13 01:01:01;;;;;;;12.02;6.55;;;;;;;;;;5065622;28;20032;-49
2022/02/13 01:03:27;;;;;;;14.68;6.85;;;;;;;;;;5077374;28;20021;-49
2022/02/13 01:05:53;;;;;;;15.38;6.80;;;;;;;;;;5065075;28;20107;-48
2022/02/13 01:08:19;;;;;;;15.52;6.78;;;;;;;;;;5070950;28;20476;-48
2022/02/13 01:10:45;;;;;;;13.05;6.53;;;;;;;;;;5072445;28;20587;-48
2022/02/13 01:13:11;;;;;;;17.00;7.32;;;;;;;;;;5066728;28;20036;-49
2022/02/13 01:15:37;;;;;;;13.18;6.72;;;;;;;;;;5070466;28;20028;-49
2022/02/13 01:18:03;;;;;;;14.80;6.20;;;;;;;;;;5065170;28;20025;-49
2022/02/13 01:20:29;;;;;;;12.82;6.70;;;;;;;;;;5069197;28;20046;-50
2022/02/13 01:22:55;;;;;;;13.13;6.72;;;;;;;;;;5070865;28;20031;-49
2022/02/13 01:25:21;;;;;;;15.43;6.80;;;;;;;;;;5065316;28;20457;-48
2022/02/13 01:27:47;;;;;;;13.00;6.63;;;;;;;;;;5054740;28;20037;-50
2022/02/13 01:30:13;;;;;;;13.43;7.15;;;;;;;;;;5062355;28;20480;-50
2022/02/13 01:32:39;;;;;;;15.57;6.90;;;;;;;;;;5062651;28;20037;-50
2022/02/13 01:35:05;;;;;;;12.45;6.70;;;;;;;;;;5071195;28;20024;-51
2022/02/13 01:37:31;;;;;;;15.85;6.50;;;;;;;;;;5072474;28;20559;-49
2022/02/13 01:39:57;;;;;;;14.25;7.57;;;;;;;;;;5067668;28;20100;-49
2022/02/13 01:42:23;;;;;;;13.25;6.85;;;;;;;;;;5063525;28;20090;-52
2022/02/13 01:44:52;;;;;;;14.02;7.10;;;;;;;;;;5061631;28;20029;-53
2022/02/13 01:47:18;;;;;;;15.25;6.32;;;;;;;;;;5072696;28;20098;-50
2022/02/13 01:49:44;;;;;;;16.45;6.57;;;;;;;;;;5066423;28;20040;-51
2022/02/13 01:52:11;;;;;;;13.88;6.82;;;;;;;;;;5062336;28;20028;-49
2022/02/13 01:54:37;;;;;;;11.90;6.55;;;;;;;;;;5072131;28;20056;-49
2022/02/13 01:57:03;;;;;;;13.57;6.22;;;;;;;;;;5072216;28;20031;-49
2022/02/13 01:59:29;;;;;;;13.82;6.13;;;;;;;;;;5068104;28;20033;-49
2022/02/13 02:01:55;;;;;;;12.35;6.35;;;;;;;;;;5064041;28;20107;-48
2022/02/13 02:04:21;;;;;;;14.77;6.80;;;;;;;;;;5071482;28;20035;-48
2022/02/13 02:06:47;;;;;;;10.13;6.00;;;;;;;;;;5059214;28;20033;-49
2022/02/13 02:09:14;;;;;;;12.65;6.43;;;;;;;;;;5070507;28;20382;-53
2022/02/13 02:11:40;;;;;;;14.07;6.72;;;;;;;;;;5069594;28;20032;-50
2022/02/13 02:14:06;;;;;;;12.50;6.32;;;;;;;;;;5064964;28;20020;-51
2022/02/13 02:16:32;;;;;;;15.00;7.38;;;;;;;;;;5057291;28;20028;-52
2022/02/13 02:18:58;;;;;;;13.85;7.25;;;;;;;;;;5067211;28;20361;-54
2022/02/13 02:21:24;;;;;;;14.60;6.30;;;;;;;;;;5061017;28;20111;-50
2022/02/13 02:23:50;;;;;;;13.63;6.25;;;;;;;;;;5068064;28;20032;-50
2022/02/13 02:26:17;;;;;;;17.33;6.95;;;;;;;;;;5068018;28;20569;-50
2022/02/13 02:28:43;;;;;;;12.70;6.88;;;;;;;;;;5058785;28;20028;-49
2022/02/13 02:31:09;;;;;;;12.02;6.72;;;;;;;;;;5067029;28;20033;-50
2022/02/13 02:33:35;;;;;;;13.98;6.40;;;;;;;;;;5071885;28;20062;-52
2022/02/13 02:36:01;;;;;;;15.25;6.50;;;;;;;;;;5071747;28;20481;-50
2022/02/13 02:38:27;;;;;;;11.77;7.03;;;;;;;;;;5071633;28;20032;-51
2022/02/13 02:40:53;;;;;;;15.07;6.93;;;;;;;;;;5064276;28;20021;-54
2022/02/13 02:43:19;;;;;;;12.68;6.00;;;;;;;;;;5073444;28;20027;-49
2022/02/13 02:45:45;;;;;;;13.68;6.30;;;;;;;;;;5065573;28;20042;-48
2022/02/13 02:48:11;;;;;;;14.82;6.22;;;;;;;;;;5070991;28;20036;-49
2022/02/13 02:50:37;;;;;;;11.35;6.55;;;;;;;;;;5066193;28;20025;-50
2022/02/13 02:53:04;;;;;;;14.88;6.90;;;;;;;;;;5070723;28;20056;-48
2022/02/13 02:55:30;;;;;;;12.50;6.05;;;;;;;;;;5070726;28;20056;-48
2022/02/13 02:57:56;;;;;;;13.35;6.45;;;;;;;;;;5067310;28;20060;-48
2022/02/13 03:00:22;;;;;;;14.50;6.20;;;;;;;;;;5066750;28;20021;-49
2022/02/13 03:02:48;;;;;;;12.18;5.93;;;;;;;;;;5071105;28;20021;-52
2022/02/13 03:05:14;;;;;;;12.80;7.32;;;;;;;;;;5066440;28;20028;-53
2022/02/13 03:07:40;;;;;;;15.23;7.28;;;;;;;;;;5069181;28;20029;-50
2022/02/13 03:10:06;;;;;;;15.93;7.10;;;;;;;;;;5071648;28;20020;-49
2022/02/13 03:12:32;;;;;;;15.50;6.68;;;;;;;;;;5064647;28;20036;-52
2022/02/13 03:14:58;;;;;;;13.20;6.47;;;;;;;;;;5064734;28;20381;-49
2022/02/13 03:17:24;;;;;;;15.43;6.88;;;;;;;;;;5071484;28;20095;-49
2022/02/13 03:19:50;;;;;;;18.05;6.68;;;;;;;;;;5071089;28;20029;-49
2022/02/13 03:22:16;;;;;;;13.95;7.03;;;;;;;;;;5070885;28;20040;-49
2022/02/13 03:24:42;;;;;;;11.52;6.65;;;;;;;;;;5066888;28;20025;-50
2022/02/13 03:27:08;;;;;;;16.08;6.65;;;;;;;;;;5065703;28;20139;-50
2022/02/13 03:29:34;;;;;;;13.35;6.40;;;;;;;;;;5069351;28;20123;-50
2022/02/13 03:32:00;;;;;;;14.70;6.60;;;;;;;;;;5069200;28;20041;-50
2022/02/13 03:34:26;;;;;;;15.45;6.45;;;;;;;;;;5069748;28;20036;-49
2022/02/13 03:36:52;;;;;;;13.82;6.18;;;;;;;;;;5071239;28;20032;-49
2022/02/13 03:39:18;;;;;;;14.45;6.93;;;;;;;;;;5071307;28;20047;-49
2022/02/13 03:41:44;;;;;;;14.77;6.75;;;;;;;;;;5065140;28;20028;-48
2022/02/13 03:44:10;;;;;;;10.38;5.80;;;;;;;;;;5065906;28;20488;-50
2022/02/13 03:46:36;;;;;;;10.55;5.30;;;;;;;;;;5069266;28;20029;-54
2022/02/13 03:49:02;;;;;;;11.73;5.60;;;;;;;;;;5064056;28;20033;-53
2022/02/13 03:51:28;;;;;;;11.77;6.18;;;;;;;;;;5080818;28;20103;-50
2022/02/13 03:53:54;;;;;;;11.73;6.03;;;;;;;;;;5073877;28;20128;-50
2022/02/13 03:56:20;;;;;;;12.73;5.85;;;;;;;;;;5071297;28;20039;-50
2022/02/13 03:58:47;;;;;;;15.52;6.20;;;;;;;;;;5072429;28;20056;-49
2022/02/13 04:01:13;;;;;;;12.75;5.85;;;;;;;;;;5071333;28;20046;-49
2022/02/13 04:03:39;;;;;;;9.23;5.65;;;;;;;;;;5074165;28;20261;-52
2022/02/13 04:06:05;;;;;;;11.52;6.07;;;;;;;;;;5062034;28;20017;-52
2022/02/13 04:08:31;;;;;;;19.42;6.40;;;;;;;;;;5071369;28;20043;-49
2022/02/13 04:10:58;;;;;;;13.68;5.78;;;;;;;;;;5073375;28;20099;-49
2022/02/13 04:13:24;;;;;;;8.55;5.75;;;;;;;;;;5065999;28;20094;-49
2022/02/13 04:15:50;;;;;;;12.45;5.85;;;;;;;;;;5074453;28;20020;-49
2022/02/13 04:18:18;;;;;;;15.38;6.45;;;;;;;;;;5073842;28;20029;-48
2022/02/13 04:20:45;;;;;;;13.98;6.53;;;;;;;;;;5074253;28;20021;-49
2022/02/13 04:23:11;;;;;;;12.43;6.47;;;;;;;;;;5063155;28;20033;-49
2022/02/13 04:25:37;;;;;;;12.80;5.70;;;;;;;;;;5074169;28;20052;-48
2022/02/13 04:28:03;;;;;;;12.10;5.68;;;;;;;;;;5070635;28;20395;-49
2022/02/13 04:30:30;;;;;;;10.15;5.95;;;;;;;;;;5073307;28;20040;-48
2022/02/13 04:32:56;;;;;;;12.13;5.10;;;;;;;;;;5073477;28;20055;-52
2022/02/13 04:35:25;;;;;;;13.15;6.03;;;;;;;;;;5065924;28;20032;-54
2022/02/13 04:37:55;;;;;;;14.43;6.47;;;;;;;;;;5068087;28;20035;-53
2022/02/13 04:40:21;;;;;;;12.38;5.80;;;;;;;;;;5061920;28;20029;-51
2022/02/13 04:42:48;;;;;;;12.32;5.43;;;;;;;;;;5067350;28;20028;-49
2022/02/13 04:45:14;;;;;;;11.93;5.43;;;;;;;;;;5063840;28;20028;-53
2022/02/13 04:47:40;;;;;;;10.88;5.78;;;;;;;;;;5073008;28;20368;-53
2022/02/13 04:50:06;;;;;;;9.73;5.82;;;;;;;;;;5073583;28;20024;-53
2022/02/13 04:52:33;;;;;;;12.77;5.38;;;;;;;;;;5062526;28;20036;-52
2022/02/13 04:54:59;;;;;;;17.25;5.72;;;;;;;;;;5073021;28;20028;-49
2022/02/13 04:57:26;;;;;;;12.30;5.97;;;;;;;;;;5066468;28;20075;-49
2022/02/13 04:59:52;;;;;;;8.85;4.60;;;;;;;;;;5061855;28;20037;-51
2022/02/13 05:02:19;;;;;;;9.98;5.18;;;;;;;;;;5068684;28;20082;-50
2022/02/13 05:04:45;;;;;;;9.73;5.30;;;;;;;;;;5072671;28;20472;-49
2022/02/13 05:07:11;;;;;;;12.55;5.93;;;;;;;;;;5064229;28;20025;-49
2022/02/13 05:09:37;;;;;;;11.18;5.75;;;;;;;;;;5067876;28;20477;-49
2022/02/13 05:12:04;;;;;;;11.73;5.15;;;;;;;;;;5068487;28;20025;-48
2022/02/13 05:14:29;;;;;;;11.82;6.13;;;;;;;;;;5058500;28;20033;-49
2022/02/13 05:16:56;;;;;;;8.95;5.10;;;;;;;;;;5069067;28;20032;-49
2022/02/13 05:19:21;;;;;;;10.75;5.22;;;;;;;;;;5072740;28;20060;-49
2022/02/13 05:21:54;;;;;;;10.05;5.72;;;;;;;;;;5072498;28;20063;-51
2022/02/13 05:24:20;;;;;;;11.00;5.55;;;;;;;;;;5066460;28;20032;-54
2022/02/13 05:26:46;;;;;;;10.00;5.15;;;;;;;;;;5070412;28;20029;-52
2022/02/13 05:29:15;;;;;;;15.48;5.35;;;;;;;;;;5066796;28;20037;-50
2022/02/13 05:31:41;;;;;;;12.73;4.97;;;;;;;;;;5062453;28;20032;-53
2022/02/13 05:34:07;;;;;;;10.40;4.95;;;;;;;;;;5070563;28;20032;-49
2022/02/13 05:36:33;;;;;;;11.93;6.53;;;;;;;;;;5062386;28;20126;-53
2022/02/13 05:38:59;;;;;;;9.68;5.30;;;;;;;;;;5066862;28;20036;-48
2022/02/13 05:41:25;;;;;;;11.32;4.93;;;;;;;;;;5068737;28;20027;-49
2022/02/13 05:43:51;;;;;;;9.60;4.85;;;;;;;;;;5072395;28;20036;-48
2022/02/13 05:46:17;;;;;;;11.75;5.53;;;;;;;;;;5072666;28;20077;-50
2022/02/13 05:48:45;;;;;;;10.30;5.13;;;;;;;;;;5072824;28;20074;-49
2022/02/13 05:51:11;;;;;;;11.00;5.28;;;;;;;;;;5064088;28;20020;-48
2022/02/13 05:53:37;;;;;;;11.95;5.28;;;;;;;;;;5072298;28;20040;-49
2022/02/13 05:56:04;;;;;;;10.93;5.40;;;;;;;;;;5068967;28;20325;-48
2022/02/13 05:58:34;;;;;;;10.80;5.78;;;;;;;;;;5071211;28;20048;-51
2022/02/13 06:01:00;;;;;;;12.70;5.97;;;;;;;;;;5066627;28;20020;-51
2022/02/13 06:03:26;;;;;;;12.45;5.47;;;;;;;;;;5064344;28;20384;-49
2022/02/13 06:05:52;;;;;;;14.68;5.85;;;;;;;;;;5066299;28;20033;-48
2022/02/13 06:08:18;;;;;;;13.30;5.80;;;;;;;;;;5063243;28;20086;-48
2022/02/13 06:10:44;;;;;;;11.15;5.15;;;;;;;;;;5067625;28;20040;-51
2022/02/13 06:13:11;;;;;;;11.90;5.25;;;;;;;;;;5069597;28;20440;-53
2022/02/13 06:15:37;;;;;;;11.27;5.28;;;;;;;;;;5069350;28;20048;-54
2022/02/13 06:18:03;;;;;;;11.65;5.65;;;;;;;;;;5076189;28;20059;-49
2022/02/13 06:20:29;;;;;;;10.40;5.43;;;;;;;;;;5072023;28;20024;-49
2022/02/13 06:22:55;;;;;;;14.05;5.50;;;;;;;;;;5069617;28;20028;-53
2022/02/13 06:25:21;;;;;;;10.05;5.05;;;;;;;;;;5069983;28;20040;-52
2022/02/13 06:27:47;;;;;;;10.18;5.40;;;;;;;;;;5066995;28;20040;-51
2022/02/13 06:30:13;;;;;;;10.82;5.40;;;;;;;;;;5068062;28;20044;-52
2022/02/13 06:32:38;;;;;;;12.43;5.03;;;;;;;;;;5069620;28;20090;-53
2022/02/13 06:35:05;;;;;;;9.32;5.15;;;;;;;;;;5071305;28;20528;-49
2022/02/13 06:37:31;;;;;;;11.50;5.60;;;;;;;;;;5070028;28;20103;-50
2022/02/13 06:39:57;;;;;;;13.35;5.57;;;;;;;;;;5065834;28;20021;-51
2022/02/13 06:42:23;;;;;;;13.50;5.97;;;;;;;;;;5053093;28;20029;-49
2022/02/13 06:44:50;;;;;;;10.18;5.63;;;;;;;;;;5068567;28;20168;-50
2022/02/13 06:47:16;;;;;;;11.45;5.10;;;;;;;;;;5071445;28;20016;-48
2022/02/13 06:49:42;;;;;;;11.48;5.90;;;;;;;;;;5071100;28;20029;-49
2022/02/13 06:52:08;;;;;;;11.32;5.45;;;;;;;;;;5065291;28;20028;-48
2022/02/13 06:54:34;;;;;;;12.10;5.50;;;;;;;;;;5061094;28;20068;-49
2022/02/13 06:57:00;;;;;;;13.75;6.25;;;;;;;;;;5071668;28;20102;-50
2022/02/13 06:59:26;;;;;;;12.45;5.53;;;;;;;;;;5063149;28;20048;-53
2022/02/13 07:01:52;;;;;;;8.70;4.90;;;;;;;;;;5065335;28;20491;-52
2022/02/13 07:04:18;;;;;;;11.40;5.57;;;;;;;;;;5069935;28;20062;-51
2022/02/13 07:06:45;;;;;;;10.43;5.03;;;;;;;;;;5067799;28;20078;-51
2022/02/13 07:09:11;;;;;;;10.13;5.57;;;;;;;;;;5068137;28;20024;-49
2022/02/13 07:11:37;;;;;;;8.50;5.22;;;;;;;;;;5064635;28;20037;-49
2022/02/13 07:14:03;;;;;;;11.45;5.90;;;;;;;;;;5071782;28;20104;-49
2022/02/13 07:16:29;;;;;;;14.30;7.43;;;;;;;;;;5074911;28;20033;-50
2022/02/13 07:18:56;;;;;;;11.68;5.38;;;;;;;;;;5075035;28;20048;-48
2022/02/13 07:21:22;;;;;;;13.60;6.05;;;;;;;;;;5066368;28;20121;-49
2022/02/13 07:23:48;;;;;;;11.88;5.70;;;;;;;;;;5068792;28;20487;-49
2022/02/13 07:26:14;;;;;;;10.85;5.57;;;;;;;;;;5067734;28;20386;-49
2022/02/13 07:31:25;;;;;;;8.40;4.85;;;;;;;;;;5069475;28;20085;-49
2022/02/13 07:33:51;;;;;;;8.65;5.10;;;;;;;;;;5075207;28;20435;-49
2022/02/13 07:36:17;;;;;;;11.10;6.20;;;;;;;;;;5071007;28;20040;-49
2022/02/13 07:38:43;;;;;;;9.35;4.63;;;;;;;;;;5074955;28;20373;-52
2022/02/13 07:41:09;;;;;;;8.77;4.93;;;;;;;;;;5068852;28;20120;-49
2022/02/13 07:43:35;;;;;;;10.00;5.28;;;;;;;;;;5066104;28;20104;-49
2022/02/13 07:46:01;;;;;;;13.13;6.07;;;;;;;;;;5064983;28;20393;-49
2022/02/13 07:48:27;;;;;;;8.50;5.47;;;;;;;;;;5074489;28;20036;-48
2022/02/13 07:50:54;;;;;;;10.60;5.32;;;;;;;;;;5073255;28;20063;-51
2022/02/13 07:53:20;;;;;;;11.90;5.55;;;;;;;;;;5062731;28;20450;-50
2022/02/13 07:55:46;;;;;;;12.10;5.25;;;;;;;;;;5071395;28;20444;-49
2022/02/13 07:58:12;;;;;;;16.35;5.20;;;;;;;;;;5080242;28;20124;-51
2022/02/13 08:00:38;;;;;;;12.25;5.25;;;;;;;;;;5066713;28;20036;-50
2022/02/13 08:03:04;;;;;;;10.27;4.90;;;;;;;;;;5074073;28;20102;-49
2022/02/13 08:05:30;;;;;;;11.98;4.95;;;;;;;;;;5068558;28;20032;-50
2022/02/13 08:07:56;;;;;;;8.77;4.68;;;;;;;;;;5065842;28;20099;-49
2022/02/13 08:10:22;;;;;;;13.07;5.68;;;;;;;;;;5072852;28;20024;-50
2022/02/13 08:12:48;;;;;;;9.35;4.70;;;;;;;;;;5065492;28;20086;-49
2022/02/13 08:15:15;;;;;;;10.38;5.38;;;;;;;;;;5067234;28;20519;-52
2022/02/13 08:17:41;;;;;;;11.73;5.93;;;;;;;;;;5067024;28;20095;-53
2022/02/13 08:20:09;;;;;;;7.03;4.32;;;;;;;;;;5067832;28;20127;-50
2022/02/13 08:22:35;;;;;;;8.02;4.70;;;;;;;;;;5073970;28;20017;-53
2022/02/13 08:25:02;;;;;;;8.90;4.78;;;;;;;;;;5063880;28;20067;-50
2022/02/13 08:27:28;;;;;;;8.80;4.63;;;;;;;;;;5071009;28;20453;-49
2022/02/13 08:29:54;;;;;;;9.48;4.95;;;;;;;;;;5073138;28;20033;-49
2022/02/13 08:32:20;;;;;;;8.48;4.93;;;;;;;;;;5067315;28;20478;-50
2022/02/13 08:34:46;;;;;;;8.55;4.35;;;;;;;;;;5067601;28;20099;-49
2022/02/13 08:37:13;;;;;;;9.45;4.68;;;;;;;;;;5070807;28;20103;-50
2022/02/13 08:39:39;;;;;;;12.02;5.05;;;;;;;;;;5065226;28;20146;-50
2022/02/13 08:42:05;;;;;;;8.57;4.45;;;;;;;;;;5073605;28;20082;-49
2022/02/13 08:44:31;;;;;;;7.75;4.57;;;;;;;;;;5071508;28;20430;-49
2022/02/13 08:46:57;;;;;;;8.27;4.10;;;;;;;;;;5063283;28;20103;-50
2022/02/13 08:49:23;;;;;;;8.77;4.03;;;;;;;;;;5066175;28;20028;-50
2022/02/13 08:51:49;;;;;;;9.10;4.90;;;;;;;;;;5071515;28;20039;-51
2022/02/13 08:54:15;;;;;;;10.13;4.60;;;;;;;;;;5071627;28;20044;-50
2022/02/13 08:56:41;;;;;;;8.50;4.13;;;;;;;;;;5054134;28;20033;-49
2022/02/13 08:59:07;;;;;;;11.35;4.80;;;;;;;;;;5062324;28;20055;-49
2022/02/13 09:01:35;;;;;;;8.93;4.30;;;;;;;;;;5071442;28;20528;-52
2022/02/13 09:04:01;;;;;;;7.82;4.30;;;;;;;;;;5067926;28;20483;-52
2022/02/13 09:06:27;;;;;;;8.43;4.20;;;;;;;;;;5065722;28;20024;-49
2022/02/13 09:08:53;;;;;;;9.88;4.68;;;;;;;;;;5066459;28;20033;-49
2022/02/13 09:11:19;;;;;;;8.23;4.55;;;;;;;;;;5066493;28;20116;-49
2022/02/13 09:13:44;;;;;;;8.82;4.10;;;;;;;;;;5060024;28;20021;-51
2022/02/13 09:16:11;;;;;;;11.27;5.32;;;;;;;;;;5067997;28;20032;-49
2022/02/13 09:18:37;;;;;;;12.85;5.18;;;;;;;;;;5062034;28;20361;-49
2022/02/13 09:21:03;;;;;;;7.63;4.35;;;;;;;;;;5065328;28;20364;-50
2022/02/13 09:23:29;;;;;;;9.38;4.18;;;;;;;;;;5066561;28;20025;-51
2022/02/13 09:25:55;;;;;;;7.78;3.72;;;;;;;;;;5062170;28;20025;-49
2022/02/13 09:28:21;;;;;;;7.78;4.20;;;;;;;;;;5062844;28;20036;-48
2022/02/13 09:30:49;;;;;;;8.40;4.20;;;;;;;;;;5067830;28;20020;-49
2022/02/13 09:33:16;;;;;;;12.82;4.82;;;;;;;;;;5067028;28;20492;-49
2022/02/13 09:35:42;;;;;;;10.40;4.18;;;;;;;;;;5068416;28;20075;-49
2022/02/13 09:38:10;;;;;;;7.43;4.00;;;;;;;;;;5069494;28;20033;-52
2022/02/13 09:40:37;;;;;;;6.75;4.20;;;;;;;;;;5060179;28;20025;-50
2022/02/13 09:43:03;;;;;;;12.50;3.78;;;;;;;;;;5059585;28;20035;-51
2022/02/13 09:45:30;;;;;;;4.13;2.88;;;;;;;;;;5055282;28;20465;-48
2022/02/13 09:47:59;;;;;;;8.73;3.20;;;;;;;;;;5067403;28;20036;-48
2022/02/13 09:50:25;;;;;;;4.78;2.92;;;;;;;;;;5066009;28;20103;-49
2022/02/13 09:52:54;;;;;;;5.55;3.20;;;;;;;;;;5066981;28;20040;-48
2022/02/13 09:55:21;;;;;;;4.75;2.97;;;;;;;;;;5068587;28;20463;-47
2022/02/13 09:57:59;;;;;;;3.90;2.53;;;;;;;;;;5065749;28;20021;-50
2022/02/13 10:00:25;;;;;;;5.97;2.80;;;;;;;;;;5059286;28;20069;-51
2022/02/13 10:02:53;;;;;;;7.00;3.47;;;;;;;;;;5060130;28;20083;-51
2022/02/13 10:05:22;;;;;;;5.38;2.70;;;;;;;;;;5062235;28;20029;-51
2022/02/13 10:07:52;;;;;;;3.67;2.50;;;;;;;;;;5068874;28;20024;-48
2022/02/13 10:10:18;;;;;;;4.28;2.35;;;;;;;;;;5066230;28;20378;-50
2022/02/13 10:12:45;;;;;;;6.97;3.20;;;;;;;;;;5056829;28;20029;-50
2022/02/13 10:15:31;;;;;;;5.43;3.17;;;;;;;;;;5068321;28;20043;-48
2022/02/13 10:18:02;;;;;;;4.93;3.17;;;;;;;;;;5068592;28;20165;-51
2022/02/13 10:20:28;;;;;;;6.00;3.15;;;;;;;;;;5056246;28;20029;-48
2022/02/13 10:22:54;;;;;;;6.07;3.92;;;;;;;;;;5063549;28;20078;-49
2022/02/13 10:25:21;;;;;;;5.93;3.15;;;;;;;;;;5061250;28;20033;-49
2022/02/13 10:27:49;;;;;;;7.45;3.33;;;;;;;;;;5061993;28;20030;-49
2022/02/13 10:30:34;;;;;;;5.63;3.17;;;;;;;;;;5068412;28;20029;-49
2022/02/13 10:33:20;;;;;;;4.75;2.78;;;;;;;;;;5066185;28;20032;-49
2022/02/13 10:36:05;;;;;;;5.95;2.97;;;;;;;;;;5060054;28;20449;-49
2022/02/13 10:38:32;;;;;;;4.57;3.00;;;;;;;;;;5061714;28;20067;-49
2022/02/13 10:41:15;;;;;;;5.32;2.97;;;;;;;;;;5055838;28;20033;-49
2022/02/13 10:43:56;;;;;;;5.53;3.30;;;;;;;;;;5060043;28;20472;-49
2022/02/13 10:46:23;;;;;;;8.85;2.83;;;;;;;;;;5064146;28;20025;-50
2022/02/13 10:48:49;;;;;;;6.80;3.22;;;;;;;;;;5065170;28;20096;-49
2022/02/13 10:51:15;;;;;;;5.72;2.80;;;;;;;;;;5068918;28;20037;-49
2022/02/13 10:53:42;;;;;;;8.88;3.08;;;;;;;;;;5062838;28;20142;-49
2022/02/13 10:56:08;;;;;;;6.40;2.80;;;;;;;;;;5072279;28;20055;-50
2022/02/13 10:58:34;;;;;;;4.63;2.28;;;;;;;;;;5067478;28;20369;-49
2022/02/13 11:01:01;;;;;;;4.72;2.75;;;;;;;;;;5073541;28;20066;-49
2022/02/13 11:03:31;;;;;;;6.55;3.67;;;;;;;;;;5074603;28;20032;-55
2022/02/13 11:05:59;;;;;;;5.45;2.75;;;;;;;;;;5070338;28;20480;-51
2022/02/13 11:08:28;;;;;;;5.00;2.78;;;;;;;;;;5069915;28;20025;-49
2022/02/13 11:10:57;;;;;;;4.82;2.30;;;;;;;;;;5059104;28;20905;-49
2022/02/13 11:13:30;;;;;;;7.38;2.72;;;;;;;;;;5067525;28;20209;-49
2022/02/13 11:15:56;;;;;;;4.65;2.78;;;;;;;;;;5065971;28;20031;-49
2022/02/13 11:18:24;;;;;;;4.43;2.35;;;;;;;;;;5068477;28;20077;-49
2022/02/13 11:20:52;;;;;;;5.20;2.70;;;;;;;;;;5066592;28;20041;-49
2022/02/13 11:23:25;;;;;;;7.88;3.10;;;;;;;;;;5065366;28;20107;-48
2022/02/13 11:25:59;;;;;;;5.03;2.63;;;;;;;;;;5066675;28;20024;-48
2022/02/13 11:28:27;;;;;;;3.90;2.13;;;;;;;;;;5067302;28;20029;-51
2022/02/13 11:30:59;;;;;;;4.10;2.10;;;;;;;;;;5062314;28;20029;-49
2022/02/13 11:33:28;;;;;;;3.78;2.30;;;;;;;;;;5070090;28;20025;-47
2022/02/13 11:35:57;;;;;;;4.50;2.05;;;;;;;;;;5068593;28;20031;-49
2022/02/13 11:38:38;;;;;;;4.50;2.33;;;;;;;;;;5060979;28;20031;-48
2022/02/13 11:41:04;;;;;;;3.80;2.20;;;;;;;;;;5068878;28;20020;-48
2022/02/13 11:43:49;;;;;;;4.53;2.42;;;;;;;;;;5067158;28;20024;-50
2022/02/13 11:46:40;;;;;;;6.60;3.25;;;;;;;;;;5072508;28;20430;-47
2022/02/13 11:49:12;;;;;;;4.68;2.08;;;;;;;;;;5068932;28;20087;-48
2022/02/13 11:51:52;;;;;;;4.95;2.15;;;;;;;;;;5058854;28;20063;-48
2022/02/13 11:54:37;;;;;;;4.70;2.20;;;;;;;;;;5071905;28;20059;-47
2022/02/13 11:57:07;;;;;;;3.38;1.92;;;;;;;;;;5067886;28;20025;-47
2022/02/13 11:59:59;;;;;;;3.22;2.10;;;;;;;;;;5068419;28;20440;-49
2022/02/13 12:02:31;;;;;;;3.30;2.20;;;;;;;;;;5062218;28;20124;-47
2022/02/13 12:05:06;;;;;;;3.75;2.08;;;;;;;;;;5068674;28;20029;-50
2022/02/13 12:07:38;;;;;;;3.63;2.05;;;;;;;;;;5070212;28;20037;-48
2022/02/13 12:10:12;;;;;;;15.00;6.82;;;;;;;;;;5065592;28;20563;-49
2022/02/13 12:12:41;;;;;;;4.68;2.17;;;;;;;;;;5071852;28;20024;-48
2022/02/13 12:15:07;;;;;;;5.97;3.10;;;;;;;;;;5068022;28;20029;-49
2022/02/13 12:17:33;;;;;;;3.50;1.90;;;;;;;;;;5070694;28;20476;-48
2022/02/13 12:20:04;;;;;;;2.75;1.63;;;;;;;;;;5063882;28;20055;-48
2022/02/13 12:22:30;;;;;;;5.35;1.80;;;;;;;;;;5066277;28;20101;-51
2022/02/13 12:24:58;;;;;;;3.88;1.98;;;;;;;;;;5073385;28;20039;-52
2022/02/13 12:27:24;;;;;;;4.03;2.22;;;;;;;;;;5073695;28;20493;-54
2022/02/13 12:29:57;;;;;;;4.18;2.25;;;;;;;;;;5063742;28;20120;-49
2022/02/13 12:32:25;;;;;;;5.20;2.80;;;;;;;;;;5064342;28;20029;-49
2022/02/13 12:35:01;;;;;;;4.00;2.35;;;;;;;;;;5074694;28;20063;-50
2022/02/13 12:37:46;;;;;;;3.72;1.92;;;;;;;;;;5066936;28;20021;-50
2022/02/13 12:40:13;;;;;;;4.97;2.30;;;;;;;;;;5071419;28;20107;-53
2022/02/13 12:42:41;;;;;;;4.15;2.42;;;;;;;;;;5072700;28;20025;-51
2022/02/13 12:45:11;;;;;;;9.57;3.60;;;;;;;;;;5068139;28;20039;-48
2022/02/13 12:47:39;;;;;;;17.65;5.50;;;;;;;;;;5068415;28;20469;-48
2022/02/13 12:50:09;;;;;;;11.93;4.18;;;;;;;;;;5063603;28;20059;-49
2022/02/13 12:52:35;;;;;;;7.38;2.50;;;;;;;;;;5068451;28;20568;-48
2022/02/13 12:55:06;;;;;;;7.55;2.58;;;;;;;;;;5067846;28;20031;-48
2022/02/13 12:57:32;;;;;;;3.55;2.13;;;;;;;;;;5066576;28;20540;-52
2022/02/13 12:59:58;;;;;;;6.05;2.75;;;;;;;;;;5064812;28;20480;-50
2022/02/13 13:02:25;;;;;;;3.67;2.22;;;;;;;;;;5062490;28;20119;-48
2022/02/13 13:04:51;;;;;;;3.65;2.15;;;;;;;;;;5062831;28;20052;-48
2022/02/13 13:07:21;;;;;;;2.92;1.70;;;;;;;;;;5066724;28;20032;-47
2022/02/13 13:09:47;;;;;;;4.93;1.85;;;;;;;;;;5056328;28;20033;-51
2022/02/13 13:12:17;;;;;;;3.38;1.90;;;;;;;;;;5065369;28;20476;-48
2022/02/13 13:14:54;;;;;;;7.03;2.40;;;;;;;;;;5065083;28;20031;-51
2022/02/13 13:17:20;;;;;;;4.00;2.22;;;;;;;;;;5059326;28;20025;-53
2022/02/13 13:19:46;;;;;;;4.28;2.17;;;;;;;;;;5067386;28;20020;-49
2022/02/13 13:22:22;;;;;;;3.58;1.90;;;;;;;;;;5067737;28;20059;-49
2022/02/13 13:24:50;;;;;;;4.97;2.53;;;;;;;;;;5062544;28;20081;-49
2022/02/13 13:27:20;;;;;;;4.32;2.63;;;;;;;;;;5064547;28;20119;-49
2022/02/13 13:29:47;;;;;;;5.63;2.72;;;;;;;;;;5065824;28;20046;-49
2022/02/13 13:32:17;;;;;;;4.32;2.00;;;;;;;;;;5071753;28;20481;-50
2022/02/13 13:34:46;;;;;;;5.28;2.58;;;;;;;;;;5072561;28;20521;-54
2022/02/13 13:37:22;;;;;;;4.28;2.13;;;;;;;;;;5060640;28;20024;-51
2022/02/13 13:39:58;;;;;;;4.20;2.50;;;;;;;;;;5061821;28;20033;-48
2022/02/13 13:42:28;;;;;;;5.50;2.42;;;;;;;;;;5060305;28;20025;-47
2022/02/13 13:45:10;;;;;;;4.18;2.22;;;;;;;;;;5059244;28;20082;-48
2022/02/13 13:47:36;;;;;;;5.30;2.45;;;;;;;;;;5068613;28;20040;-47
2022/02/13 13:50:04;;;;;;;5.88;2.30;;;;;;;;;;5071776;28;20512;-46
2022/02/13 13:52:30;;;;;;;5.10;2.42;;;;;;;;;;5066802;28;20029;-47
2022/02/13 13:54:56;;;;;;;4.13;2.42;;;;;;;;;;5065362;28;20374;-46
2022/02/13 13:57:22;;;;;;;5.22;2.40;;;;;;;;;;5065394;28;20072;-46
2022/02/13 13:59:48;;;;;;;8.52;2.97;;;;;;;;;;5060632;28;20044;-47
2022/02/13 14:02:21;;;;;;;5.18;2.42;;;;;;;;;;5065542;28;20040;-46
2022/02/13 14:04:47;;;;;;;4.47;2.63;;;;;;;;;;5066467;28;20476;-49
2022/02/13 14:07:13;;;;;;;5.78;2.45;;;;;;;;;;5073394;28;20099;-52
2022/02/13 14:09:39;;;;;;;3.50;1.85;;;;;;;;;;5071274;28;20032;-51
2022/02/13 14:12:05;;;;;;;6.80;3.03;;;;;;;;;;5059853;28;20028;-52
2022/02/13 14:14:31;;;;;;;6.05;2.40;;;;;;;;;;5064524;28;20067;-51
2022/02/13 14:16:58;;;;;;;4.68;2.58;;;;;;;;;;5065784;28;20465;-49
2022/02/13 14:19:24;;;;;;;5.13;3.08;;;;;;;;;;5072096;28;20462;-46
2022/02/13 14:21:49;;;;;;;5.85;2.50;;;;;;;;;;5072191;28;20032;-48
2022/02/13 14:24:15;;;;;;;4.40;2.45;;;;;;;;;;5081646;28;20028;-49
2022/02/13 14:26:42;;;;;;;5.57;2.45;;;;;;;;;;5071865;28;20103;-49
2022/02/13 14:29:08;;;;;;;4.65;2.17;;;;;;;;;;5065903;28;20079;-49
2022/02/13 14:31:34;;;;;;;5.22;2.42;;;;;;;;;;5065776;28;20021;-53
2022/02/13 14:34:00;;;;;;;3.17;1.75;;;;;;;;;;5066101;28;20595;-49
2022/02/13 14:36:26;;;;;;;3.83;1.73;;;;;;;;;;5062915;28;20029;-53
2022/02/13 14:38:52;;;;;;;4.32;2.30;;;;;;;;;;5063214;28;20372;-54